Terminal Aerodrome Forecast
Issued by NWS Newport/Morehead City, NC

Home | Current Version | Previous Version | Text Only | Print | Product List | Glossary On
Versions: 1 2 3 4 5 6 7 8 9 10 11 12 13 14 15 16 17 18
275
FTUS42 KMHX 251739
TAFEWN
TAF
KEWN 251739Z 2518/2618 VRB04KT P6SM BKN050
     FM260800 VRB03KT 5SM BR BKN050
     FM261300 02006KT P6SM BKN050=

USA.gov is the U.S. government's official web portal to all federal, state and local government web resources and services.